Terminal Aerodrome Forecast
Issued by NWS Northern Indiana

Home | Current Version | Previous Version | Graphics & Text | Print | Product List | Glossary On
Versions: 1 2 3 4 5 6 7 8 9 10 11 12 13 14 15
695
FTUS43 KIWX 282026 AAA
TAFFWA
TAF AMD
KFWA 282026Z 2820/2918 03005KT P6SM -SHRA SCT030 OVC060
      TEMPO 2820/2822 3SM TSRA BR OVC030CB
     FM282200 04005KT 5SM -SHRA BR OVC040
     FM290300 03007KT 3SM BR VCSH OVC025
     FM291200 04007KT 5SM BR OVC015=

USA.gov is the U.S. government's official web portal to all federal, state and local government web resources and services.